sensor_id;sensor_type;location;lat;lon;timestamp;pressure;altitude;pressure_sealevel;temperature;humidity
75221;BME280;63802;53.232;6.570;2023-12-22T00:01:06;99693.28;;;4.84;100.00
75221;BME280;63802;53.232;6.570;2023-12-22T00:03:31;99697.56;;;4.85;100.00
75221;BME280;63802;53.232;6.570;2023-12-22T00:05:57;99727.00;;;5.06;100.00
75221;BME280;63802;53.232;6.570;2023-12-22T00:08:22;99702.25;;;5.04;100.00
75221;BME280;63802;53.232;6.570;2023-12-22T00:10:49;99722.19;;;4.99;100.00
75221;BME280;63802;53.232;6.570;2023-12-22T00:13:14;99752.22;;;4.94;100.00
75221;BME280;63802;53.232;6.570;2023-12-22T00:15:40;99742.91;;;4.60;100.00
75221;BME280;63802;53.232;6.570;2023-12-22T00:18:05;99756.50;;;4.48;100.00
75221;BME280;63802;53.232;6.570;2023-12-22T00:20:31;99749.34;;;4.25;100.00
75221;BME280;63802;53.232;6.570;2023-12-22T00:22:56;99748.69;;;4.16;100.00
75221;BME280;63802;53.232;6.570;2023-12-22T00:25:22;99736.34;;;4.15;100.00
75221;BME280;63802;53.232;6.570;2023-12-22T00:27:47;99695.41;;;4.13;100.00
75221;BME280;63802;53.232;6.570;2023-12-22T00:30:13;99702.88;;;4.03;100.00
75221;BME280;63802;53.232;6.570;2023-12-22T00:32:38;99735.56;;;4.30;100.00
75221;BME280;63802;53.232;6.570;2023-12-22T00:35:04;99739.16;;;4.34;100.00
75221;BME280;63802;53.232;6.570;2023-12-22T00:37:30;99734.44;;;4.31;100.00
75221;BME280;63802;53.232;6.570;2023-12-22T00:39:55;99758.22;;;4.41;100.00
75221;BME280;63802;53.232;6.570;2023-12-22T00:42:20;99756.78;;;4.16;100.00
75221;BME280;63802;53.232;6.570;2023-12-22T00:44:46;99731.56;;;3.96;100.00
75221;BME280;63802;53.232;6.570;2023-12-22T00:47:11;99749.78;;;3.99;100.00
75221;BME280;63802;53.232;6.570;2023-12-22T00:49:37;99745.78;;;3.93;100.00
75221;BME280;63802;53.232;6.570;2023-12-22T00:52:03;99753.91;;;4.08;100.00
75221;BME280;63802;53.232;6.570;2023-12-22T00:54:28;99731.94;;;3.94;100.00
75221;BME280;63802;53.232;6.570;2023-12-22T00:56:55;99758.81;;;4.19;100.00
75221;BME280;63802;53.232;6.570;2023-12-22T00:59:21;99743.53;;;4.11;100.00
75221;BME280;63802;53.232;6.570;2023-12-22T01:01:46;99748.25;;;4.14;100.00
75221;BME280;63802;53.232;6.570;2023-12-22T01:04:11;99755.66;;;4.17;100.00
75221;BME280;63802;53.232;6.570;2023-12-22T01:06:38;99777.06;;;4.10;100.00
75221;BME280;63802;53.232;6.570;2023-12-22T01:09:04;99763.59;;;4.10;100.00
75221;BME280;63802;53.232;6.570;2023-12-22T01:11:29;99731.25;;;3.97;100.00
75221;BME280;63802;53.232;6.570;2023-12-22T01:13:54;99771.88;;;4.17;100.00
75221;BME280;63802;53.232;6.570;2023-12-22T01:16:20;99744.69;;;4.10;100.00
75221;BME280;63802;53.232;6.570;2023-12-22T01:18:47;99764.69;;;4.08;100.00
75221;BME280;63802;53.232;6.570;2023-12-22T01:21:12;99756.66;;;4.24;100.00
75221;BME280;63802;53.232;6.570;2023-12-22T01:23:38;99788.19;;;4.36;100.00
75221;BME280;63802;53.232;6.570;2023-12-22T01:26:03;99797.59;;;4.42;100.00
75221;BME280;63802;53.232;6.570;2023-12-22T01:28:28;99776.59;;;4.35;100.00
75221;BME280;63802;53.232;6.570;2023-12-22T01:30:54;99797.97;;;4.56;100.00
75221;BME280;63802;53.232;6.570;2023-12-22T01:33:19;99773.94;;;4.51;100.00
75221;BME280;63802;53.232;6.570;2023-12-22T01:35:44;99787.25;;;4.44;100.00
75221;BME280;63802;53.232;6.570;2023-12-22T01:38:10;99812.97;;;4.53;100.00
75221;BME280;63802;53.232;6.570;2023-12-22T01:40:35;99803.91;;;4.61;100.00
75221;BME280;63802;53.232;6.570;2023-12-22T01:43:01;99820.91;;;4.62;100.00
75221;BME280;63802;53.232;6.570;2023-12-22T01:45:27;99824.31;;;4.74;100.00
75221;BME280;63802;53.232;6.570;2023-12-22T01:47:52;99802.44;;;4.64;100.00
75221;BME280;63802;53.232;6.570;2023-12-22T01:50:19;99808.63;;;4.64;100.00
75221;BME280;63802;53.232;6.570;2023-12-22T01:52:45;99816.19;;;4.59;100.00
75221;BME280;63802;53.232;6.570;2023-12-22T01:55:12;99807.09;;;4.36;100.00
75221;BME280;63802;53.232;6.570;2023-12-22T01:57:39;99793.59;;;4.08;100.00
75221;BME280;63802;53.232;6.570;2023-12-22T02:00:06;99824.03;;;4.21;100.00
75221;BME280;63802;53.232;6.570;2023-12-22T02:02:32;99794.59;;;4.16;100.00
75221;BME280;63802;53.232;6.570;2023-12-22T02:04:58;99789.19;;;4.16;100.00
75221;BME280;63802;53.232;6.570;2023-12-22T02:07:25;99794.34;;;4.21;100.00
75221;BME280;63802;53.232;6.570;2023-12-22T02:09:50;99816.31;;;4.35;100.00
75221;BME280;63802;53.232;6.570;2023-12-22T02:12:16;99814.44;;;4.51;100.00
75221;BME280;63802;53.232;6.570;2023-12-22T02:14:42;99827.66;;;4.56;100.00
75221;BME280;63802;53.232;6.570;2023-12-22T02:17:53;99825.94;;;4.63;100.00
75221;BME280;63802;53.232;6.570;2023-12-22T02:20:21;99810.34;;;4.41;100.00
75221;BME280;63802;53.232;6.570;2023-12-22T02:22:51;99812.31;;;4.29;100.00
75221;BME280;63802;53.232;6.570;2023-12-22T02:25:17;99798.94;;;4.20;100.00
75221;BME280;63802;53.232;6.570;2023-12-22T02:27:48;99799.53;;;4.14;100.00
75221;BME280;63802;53.232;6.570;2023-12-22T02:30:37;99798.66;;;4.10;100.00
75221;BME280;63802;53.232;6.570;2023-12-22T02:33:05;99801.63;;;4.04;100.00
75221;BME280;63802;53.232;6.570;2023-12-22T02:35:33;99782.78;;;3.92;100.00
75221;BME280;63802;53.232;6.570;2023-12-22T02:38:02;99767.94;;;3.86;100.00
75221;BME280;63802;53.232;6.570;2023-12-22T02:40:28;99776.59;;;3.92;100.00
75221;BME280;63802;53.232;6.570;2023-12-22T02:42:54;99766.59;;;3.92;100.00
75221;BME280;63802;53.232;6.570;2023-12-22T02:45:20;99760.94;;;3.97;100.00
75221;BME280;63802;53.232;6.570;2023-12-22T02:47:46;99771.00;;;4.13;100.00
75221;BME280;63802;53.232;6.570;2023-12-22T02:50:16;99742.50;;;4.15;100.00
75221;BME280;63802;53.232;6.570;2023-12-22T02:52:41;99760.75;;;4.34;100.00
75221;BME280;63802;53.232;6.570;2023-12-22T02:55:07;99749.69;;;4.39;100.00
75221;BME280;63802;53.232;6.570;2023-12-22T02:57:33;99748.28;;;4.45;100.00
75221;BME280;63802;53.232;6.570;2023-12-22T02:59:59;99788.66;;;4.69;100.00
75221;BME280;63802;53.232;6.570;2023-12-22T03:02:24;99804.00;;;4.65;100.00
75221;BME280;63802;53.232;6.570;2023-12-22T03:04:50;99780.97;;;4.40;100.00
75221;BME280;63802;53.232;6.570;2023-12-22T03:07:18;99744.69;;;4.10;100.00
75221;BME280;63802;53.232;6.570;2023-12-22T03:09:44;99768.88;;;4.06;100.00
75221;BME280;63802;53.232;6.570;2023-12-22T03:12:09;99751.13;;;3.77;100.00
75221;BME280;63802;53.232;6.570;2023-12-22T03:14:36;99729.84;;;3.48;100.00
75221;BME280;63802;53.232;6.570;2023-12-22T03:17:03;99733.50;;;3.40;100.00
75221;BME280;63802;53.232;6.570;2023-12-22T03:19:28;99764.94;;;3.36;100.00
75221;BME280;63802;53.232;6.570;2023-12-22T03:21:54;99749.56;;;3.24;100.00
75221;BME280;63802;53.232;6.570;2023-12-22T03:24:19;99765.41;;;3.38;100.00
75221;BME280;63802;53.232;6.570;2023-12-22T03:26:46;99766.75;;;3.32;100.00
75221;BME280;63802;53.232;6.570;2023-12-22T03:29:11;99771.91;;;3.37;100.00
75221;BME280;63802;53.232;6.570;2023-12-22T03:31:37;99759.66;;;3.39;100.00
75221;BME280;63802;53.232;6.570;2023-12-22T03:34:02;99766.47;;;3.61;100.00
75221;BME280;63802;53.232;6.570;2023-12-22T03:36:28;99749.81;;;3.71;100.00
75221;BME280;63802;53.232;6.570;2023-12-22T03:38:53;99769.09;;;3.85;100.00
75221;BME280;63802;53.232;6.570;2023-12-22T03:41:19;99752.84;;;3.97;100.00
75221;BME280;63802;53.232;6.570;2023-12-22T03:43:44;99753.72;;;4.01;100.00
75221;BME280;63802;53.232;6.570;2023-12-22T03:46:10;99766.16;;;4.06;100.00
75221;BME280;63802;53.232;6.570;2023-12-22T03:48:35;99749.19;;;4.05;100.00
75221;BME280;63802;53.232;6.570;2023-12-22T03:51:00;99776.78;;;4.27;100.00
75221;BME280;63802;53.232;6.570;2023-12-22T03:53:26;99749.59;;;4.20;100.00
75221;BME280;63802;53.232;6.570;2023-12-22T03:55:51;99780.97;;;4.40;100.00
75221;BME280;63802;53.232;6.570;2023-12-22T03:58:17;99801.28;;;4.49;100.00
75221;BME280;63802;53.232;6.570;2023-12-22T04:00:42;99792.31;;;4.61;100.00
75221;BME280;63802;53.232;6.570;2023-12-22T04:03:07;99765.38;;;4.49;100.00
75221;BME280;63802;53.232;6.570;2023-12-22T04:05:33;99804.97;;;4.72;100.00
75221;BME280;63802;53.232;6.570;2023-12-22T04:07:58;99803.28;;;4.68;100.00
75221;BME280;63802;53.232;6.570;2023-12-22T04:10:23;99816.53;;;4.73;100.00
75221;BME280;63802;53.232;6.570;2023-12-22T04:12:49;99811.22;;;4.61;100.00
75221;BME280;63802;53.232;6.570;2023-12-22T04:15:14;99830.94;;;4.77;100.00
75221;BME280;63802;53.232;6.570;2023-12-22T04:17:39;99819.00;;;4.78;100.00
75221;BME280;63802;53.232;6.570;2023-12-22T04:20:06;99823.59;;;4.78;100.00
75221;BME280;63802;53.232;6.570;2023-12-22T04:22:32;99829.78;;;4.78;100.00
75221;BME280;63802;53.232;6.570;2023-12-22T04:24:57;99825.69;;;4.68;100.00
75221;BME280;63802;53.232;6.570;2023-12-22T04:27:23;99812.38;;;4.60;100.00
75221;BME280;63802;53.232;6.570;2023-12-22T04:29:48;99810.97;;;4.66;100.00
75221;BME280;63802;53.232;6.570;2023-12-22T04:32:14;99840.53;;;4.74;100.00
75221;BME280;63802;53.232;6.570;2023-12-22T04:34:42;99840.03;;;4.85;100.00
75221;BME280;63802;53.232;6.570;2023-12-22T04:37:09;99823.34;;;4.83;100.00
75221;BME280;63802;53.232;6.570;2023-12-22T04:39:34;99824.91;;;4.99;100.00
75221;BME280;63802;53.232;6.570;2023-12-22T04:42:00;99861.03;;;5.07;100.00
75221;BME280;63802;53.232;6.570;2023-12-22T04:44:25;99861.13;;;5.10;100.00
75221;BME280;63802;53.232;6.570;2023-12-22T04:46:51;99839.41;;;4.91;100.00
75221;BME280;63802;53.232;6.570;2023-12-22T04:49:17;99860.13;;;5.18;100.00
75221;BME280;63802;53.232;6.570;2023-12-22T04:51:43;99888.75;;;5.19;100.00
75221;BME280;63802;53.232;6.570;2023-12-22T04:54:09;99863.56;;;5.15;100.00
75221;BME280;63802;53.232;6.570;2023-12-22T04:56:34;99859.03;;;5.04;100.00
75221;BME280;63802;53.232;6.570;2023-12-22T04:58:59;99858.25;;;5.03;100.00
75221;BME280;63802;53.232;6.570;2023-12-22T05:01:25;99884.22;;;5.23;100.00
75221;BME280;63802;53.232;6.570;2023-12-22T05:03:50;99882.66;;;5.22;100.00
75221;BME280;63802;53.232;6.570;2023-12-22T05:06:16;99886.91;;;5.23;100.00
75221;BME280;63802;53.232;6.570;2023-12-22T05:08:41;99876.56;;;5.25;100.00
75221;BME280;63802;53.232;6.570;2023-12-22T05:11:07;99881.25;;;5.28;100.00
75221;BME280;63802;53.232;6.570;2023-12-22T05:13:32;99907.06;;;5.26;100.00
75221;BME280;63802;53.232;6.570;2023-12-22T05:15:58;99897.66;;;5.35;100.00
75221;BME280;63802;53.232;6.570;2023-12-22T05:18:24;99866.78;;;5.21;100.00
75221;BME280;63802;53.232;6.570;2023-12-22T05:20:49;99883.53;;;5.26;100.00
75221;BME280;63802;53.232;6.570;2023-12-22T05:23:15;99878.81;;;5.23;100.00
75221;BME280;63802;53.232;6.570;2023-12-22T05:25:41;99872.53;;;5.19;100.00
75221;BME280;63802;53.232;6.570;2023-12-22T05:28:06;99888.25;;;5.29;100.00
75221;BME280;63802;53.232;6.570;2023-12-22T05:30:31;99908.72;;;5.30;100.00
75221;BME280;63802;53.232;6.570;2023-12-22T05:32:57;99894.59;;;5.21;100.00
75221;BME280;63802;53.232;6.570;2023-12-22T05:35:22;99905.84;;;5.23;100.00
75221;BME280;63802;53.232;6.570;2023-12-22T05:37:47;99898.47;;;5.20;100.00
75221;BME280;63802;53.232;6.570;2023-12-22T05:40:13;99865.75;;;5.10;100.00
75221;BME280;63802;53.232;6.570;2023-12-22T05:42:39;99884.84;;;5.32;100.00
75221;BME280;63802;53.232;6.570;2023-12-22T05:45:05;99900.09;;;5.40;100.00
75221;BME280;63802;53.232;6.570;2023-12-22T05:47:32;99928.72;;;5.41;100.00
75221;BME280;63802;53.232;6.570;2023-12-22T05:49:58;99918.06;;;5.49;100.00
75221;BME280;63802;53.232;6.570;2023-12-22T05:52:23;99921.72;;;5.40;100.00
75221;BME280;63802;53.232;6.570;2023-12-22T05:54:49;99930.63;;;5.41;100.00
75221;BME280;63802;53.232;6.570;2023-12-22T05:57:14;99917.63;;;5.31;100.00
75221;BME280;63802;53.232;6.570;2023-12-22T05:59:40;99924.53;;;5.28;100.00
75221;BME280;63802;53.232;6.570;2023-12-22T06:02:05;99909.53;;;5.15;100.00
75221;BME280;63802;53.232;6.570;2023-12-22T06:04:30;99914.31;;;5.37;100.00
75221;BME280;63802;53.232;6.570;2023-12-22T06:06:56;99910.06;;;5.36;100.00
75221;BME280;63802;53.232;6.570;2023-12-22T06:09:21;99916.84;;;5.46;100.00
75221;BME280;63802;53.232;6.570;2023-12-22T06:11:47;99933.44;;;5.45;100.00
75221;BME280;63802;53.232;6.570;2023-12-22T06:14:13;99921.66;;;5.37;100.00
75221;BME280;63802;53.232;6.570;2023-12-22T06:16:39;99933.06;;;5.30;100.00
75221;BME280;63802;53.232;6.570;2023-12-22T06:19:05;99940.50;;;5.49;100.00
75221;BME280;63802;53.232;6.570;2023-12-22T06:21:30;99943.13;;;5.46;100.00
75221;BME280;63802;53.232;6.570;2023-12-22T06:23:55;99931.59;;;5.49;100.00
75221;BME280;63802;53.232;6.570;2023-12-22T06:26:21;99931.25;;;5.50;100.00
75221;BME280;63802;53.232;6.570;2023-12-22T06:28:46;99918.78;;;5.46;100.00
75221;BME280;63802;53.232;6.570;2023-12-22T06:31:19;99914.94;;;5.47;100.00
75221;BME280;63802;53.232;6.570;2023-12-22T06:33:46;99913.63;;;5.40;100.00
75221;BME280;63802;53.232;6.570;2023-12-22T06:36:24;99910.91;;;5.40;100.00
75221;BME280;63802;53.232;6.570;2023-12-22T06:38:51;99935.84;;;5.50;100.00
75221;BME280;63802;53.232;6.570;2023-12-22T06:41:28;99954.47;;;5.51;100.00
75221;BME280;63802;53.232;6.570;2023-12-22T06:43:55;99968.69;;;5.48;100.00
75221;BME280;63802;53.232;6.570;2023-12-22T06:46:22;99977.13;;;5.31;100.00
75221;BME280;63802;53.232;6.570;2023-12-22T06:48:48;99962.31;;;5.25;100.00
75221;BME280;63802;53.232;6.570;2023-12-22T06:51:22;99931.19;;;4.88;100.00
75221;BME280;63802;53.232;6.570;2023-12-22T06:53:48;99952.31;;;4.82;100.00
75221;BME280;63802;53.232;6.570;2023-12-22T06:56:24;99942.56;;;4.65;100.00
75221;BME280;63802;53.232;6.570;2023-12-22T06:58:53;99935.03;;;4.59;100.00
75221;BME280;63802;53.232;6.570;2023-12-22T07:03:46;99936.63;;;4.60;100.00
75221;BME280;63802;53.232;6.570;2023-12-22T07:06:12;99908.31;;;4.42;100.00
75221;BME280;63802;53.232;6.570;2023-12-22T07:08:37;99890.84;;;4.51;100.00
75221;BME280;63802;53.232;6.570;2023-12-22T07:11:04;99925.41;;;4.73;100.00
75221;BME280;63802;53.232;6.570;2023-12-22T07:13:29;99934.75;;;4.76;100.00
75221;BME280;63802;53.232;6.570;2023-12-22T07:15:54;99957.84;;;5.01;100.00
75221;BME280;63802;53.232;6.570;2023-12-22T07:18:20;99960.25;;;5.06;100.00
75221;BME280;63802;53.232;6.570;2023-12-22T07:20:45;99962.91;;;5.18;100.00
75221;BME280;63802;53.232;6.570;2023-12-22T07:23:10;99968.47;;;5.10;100.00
75221;BME280;63802;53.232;6.570;2023-12-22T07:25:37;99979.91;;;5.19;100.00
75221;BME280;63802;53.232;6.570;2023-12-22T07:28:04;99962.88;;;5.03;100.00
75221;BME280;63802;53.232;6.570;2023-12-22T07:30:29;99971.41;;;4.89;100.00
75221;BME280;63802;53.232;6.570;2023-12-22T07:32:55;99974.06;;;4.73;100.00
75221;BME280;63802;53.232;6.570;2023-12-22T07:35:20;99998.13;;;4.79;100.00
75221;BME280;63802;53.232;6.570;2023-12-22T07:37:46;99990.88;;;4.67;100.00
75221;BME280;63802;53.232;6.570;2023-12-22T07:40:11;99998.53;;;4.65;100.00
75221;BME280;63802;53.232;6.570;2023-12-22T07:42:37;99984.91;;;4.61;100.00
75221;BME280;63802;53.232;6.570;2023-12-22T07:45:04;99976.81;;;4.61;100.00
75221;BME280;63802;53.232;6.570;2023-12-22T07:47:33;99972.06;;;4.58;100.00
75221;BME280;63802;53.232;6.570;2023-12-22T07:49:58;99969.72;;;4.57;100.00
75221;BME280;63802;53.232;6.570;2023-12-22T07:52:24;99967.47;;;4.59;100.00
75221;BME280;63802;53.232;6.570;2023-12-22T07:54:49;99963.66;;;4.60;100.00
75221;BME280;63802;53.232;6.570;2023-12-22T07:57:14;99936.31;;;4.49;100.00
75221;BME280;63802;53.232;6.570;2023-12-22T07:59:40;99906.78;;;4.41;100.00
75221;BME280;63802;53.232;6.570;2023-12-22T08:02:08;99928.66;;;4.51;100.00
75221;BME280;63802;53.232;6.570;2023-12-22T08:04:34;99921.03;;;4.53;100.00
75221;BME280;63802;53.232;6.570;2023-12-22T08:06:59;99932.03;;;4.60;100.00
75221;BME280;63802;53.232;6.570;2023-12-22T08:09:24;99925.81;;;4.60;100.00
75221;BME280;63802;53.232;6.570;2023-12-22T08:11:50;99938.19;;;4.89;100.00
75221;BME280;63802;53.232;6.570;2023-12-22T08:14:18;99908.78;;;4.87;100.00
75221;BME280;63802;53.232;6.570;2023-12-22T08:16:44;99908.28;;;4.97;100.00
75221;BME280;63802;53.232;6.570;2023-12-22T08:19:09;99911.34;;;5.11;100.00
75221;BME280;63802;53.232;6.570;2023-12-22T08:21:35;99951.75;;;5.35;100.00
75221;BME280;63802;53.232;6.570;2023-12-22T08:24:00;99951.75;;;5.35;100.00
75221;BME280;63802;53.232;6.570;2023-12-22T08:26:26;99938.59;;;5.34;100.00
75221;BME280;63802;53.232;6.570;2023-12-22T08:28:51;99937.97;;;5.40;100.00
75221;BME280;63802;53.232;6.570;2023-12-22T08:31:16;99941.81;;;5.39;100.00
75221;BME280;63802;53.232;6.570;2023-12-22T08:33:42;99915.19;;;5.26;100.00
75221;BME280;63802;53.232;6.570;2023-12-22T08:36:09;99929.94;;;5.28;100.00
75221;BME280;63802;53.232;6.570;2023-12-22T08:38:34;99938.47;;;5.30;100.00
75221;BME280;63802;53.232;6.570;2023-12-22T08:41:00;99935.09;;;5.18;100.00
75221;BME280;63802;53.232;6.570;2023-12-22T08:43:25;99941.19;;;5.30;100.00
75221;BME280;63802;53.232;6.570;2023-12-22T08:45:51;99948.72;;;5.37;100.00
75221;BME280;63802;53.232;6.570;2023-12-22T08:48:16;99940.25;;;5.38;100.00
75221;BME280;63802;53.232;6.570;2023-12-22T08:50:41;99948.00;;;5.40;100.00
75221;BME280;63802;53.232;6.570;2023-12-22T08:53:07;99944.06;;;5.37;100.00
75221;BME280;63802;53.232;6.570;2023-12-22T08:55:32;99929.25;;;5.31;100.00
75221;BME280;63802;53.232;6.570;2023-12-22T08:57:57;99906.03;;;5.30;100.00
75221;BME280;63802;53.232;6.570;2023-12-22T09:00:23;99918.59;;;5.38;100.00
75221;BME280;63802;53.232;6.570;2023-12-22T09:02:48;99881.09;;;5.21;100.00
75221;BME280;63802;53.232;6.570;2023-12-22T09:05:13;99909.38;;;5.39;100.00
75221;BME280;63802;53.232;6.570;2023-12-22T09:07:39;99906.66;;;5.39;100.00
75221;BME280;63802;53.232;6.570;2023-12-22T09:10:05;99878.28;;;5.33;100.00
75221;BME280;63802;53.232;6.570;2023-12-22T09:12:30;99882.75;;;5.41;100.00
75221;BME280;63802;53.232;6.570;2023-12-22T09:14:58;99891.03;;;5.49;100.00
75221;BME280;63802;53.232;6.570;2023-12-22T09:17:26;99869.38;;;5.49;100.00
75221;BME280;63802;53.232;6.570;2023-12-22T09:19:52;99899.03;;;5.61;100.00
75221;BME280;63802;53.232;6.570;2023-12-22T09:22:17;99896.75;;;5.63;100.00
75221;BME280;63802;53.232;6.570;2023-12-22T09:24:43;99890.41;;;5.55;100.00
75221;BME280;63802;53.232;6.570;2023-12-22T09:27:11;99910.72;;;5.65;100.00
75221;BME280;63802;53.232;6.570;2023-12-22T09:29:39;99902.25;;;5.66;100.00
75221;BME280;63802;53.232;6.570;2023-12-22T09:32:04;99906.16;;;5.69;100.00
75221;BME280;63802;53.232;6.570;2023-12-22T09:34:30;99903.81;;;5.67;100.00
75221;BME280;63802;53.232;6.570;2023-12-22T09:36:56;99900.47;;;5.74;100.00
75221;BME280;63802;53.232;6.570;2023-12-22T09:39:21;99893.94;;;5.75;100.00
75221;BME280;63802;53.232;6.570;2023-12-22T09:41:50;99899.16;;;5.83;100.00
75221;BME280;63802;53.232;6.570;2023-12-22T09:44:20;99900.81;;;5.88;100.00
75221;BME280;63802;53.232;6.570;2023-12-22T09:46:48;99916.47;;;5.94;100.00
75221;BME280;63802;53.232;6.570;2023-12-22T09:49:17;99923.09;;;5.97;100.00
75221;BME280;63802;53.232;6.570;2023-12-22T09:51:44;99898.72;;;5.97;100.00
75221;BME280;63802;53.232;6.570;2023-12-22T09:54:10;99897.66;;;6.01;100.00
75221;BME280;63802;53.232;6.570;2023-12-22T09:56:37;99879.63;;;5.90;100.00
75221;BME280;63802;53.232;6.570;2023-12-22T09:59:17;99892.31;;;6.05;100.00
75221;BME280;63802;53.232;6.570;2023-12-22T10:01:44;99897.72;;;6.05;100.00
75221;BME280;63802;53.232;6.570;2023-12-22T10:04:12;99926.25;;;6.18;100.00
75221;BME280;63802;53.232;6.570;2023-12-22T10:06:37;99893.03;;;6.02;100.00
75221;BME280;63802;53.232;6.570;2023-12-22T10:09:04;99922.84;;;6.21;100.00
75221;BME280;63802;53.232;6.570;2023-12-22T10:11:32;99919.69;;;6.19;100.00
75221;BME280;63802;53.232;6.570;2023-12-22T10:13:59;99928.41;;;6.28;100.00
75221;BME280;63802;53.232;6.570;2023-12-22T10:16:25;99937.75;;;6.31;100.00
75221;BME280;63802;53.232;6.570;2023-12-22T10:18:52;99933.09;;;6.31;100.00
75221;BME280;63802;53.232;6.570;2023-12-22T10:21:18;99913.28;;;6.27;100.00
75221;BME280;63802;53.232;6.570;2023-12-22T10:23:43;99937.16;;;6.41;100.00
75221;BME280;63802;53.232;6.570;2023-12-22T10:26:12;99928.72;;;6.42;100.00
75221;BME280;63802;53.232;6.570;2023-12-22T10:28:38;99938.84;;;6.45;100.00
75221;BME280;63802;53.232;6.570;2023-12-22T10:31:05;99923.19;;;6.39;100.00
75221;BME280;63802;53.232;6.570;2023-12-22T10:33:32;99929.13;;;6.44;100.00
75221;BME280;63802;53.232;6.570;2023-12-22T10:35:58;99939.75;;;6.53;100.00
75221;BME280;63802;53.232;6.570;2023-12-22T10:38:25;99942.53;;;6.56;100.00
75221;BME280;63802;53.232;6.570;2023-12-22T10:40:51;99924.28;;;6.53;100.00
75221;BME280;63802;53.232;6.570;2023-12-22T10:43:16;99929.41;;;6.58;100.00
75221;BME280;63802;53.232;6.570;2023-12-22T10:45:42;99912.06;;;6.44;100.00
75221;BME280;63802;53.232;6.570;2023-12-22T10:48:08;99903.31;;;6.50;100.00
75221;BME280;63802;53.232;6.570;2023-12-22T10:50:33;99903.47;;;6.57;100.00
75221;BME280;63802;53.232;6.570;2023-12-22T10:52:59;99911.59;;;6.57;100.00
75221;BME280;63802;53.232;6.570;2023-12-22T10:55:26;99905.81;;;6.59;100.00
75221;BME280;63802;53.232;6.570;2023-12-22T10:57:53;99885.41;;;6.46;100.00
75221;BME280;63802;53.232;6.570;2023-12-22T11:00:20;99903.38;;;6.54;100.00
75221;BME280;63802;53.232;6.570;2023-12-22T11:02:49;99912.78;;;6.60;100.00
75221;BME280;63802;53.232;6.570;2023-12-22T11:05:21;99919.41;;;6.62;100.00
75221;BME280;63802;53.232;6.570;2023-12-22T11:07:49;99884.94;;;6.40;100.00
75221;BME280;63802;53.232;6.570;2023-12-22T11:10:19;99918.00;;;6.68;100.00
75221;BME280;63802;53.232;6.570;2023-12-22T11:12:47;99918.06;;;6.72;100.00
75221;BME280;63802;53.232;6.570;2023-12-22T11:15:13;99905.44;;;6.60;100.00
75221;BME280;63802;53.232;6.570;2023-12-22T11:17:42;99899.03;;;6.68;100.00
75221;BME280;63802;53.232;6.570;2023-12-22T11:20:12;99908.13;;;6.80;100.00
75221;BME280;63802;53.232;6.570;2023-12-22T11:22:38;99873.34;;;6.62;100.00
75221;BME280;63802;53.232;6.570;2023-12-22T11:25:06;99906.91;;;6.77;100.00
75221;BME280;63802;53.232;6.570;2023-12-22T11:27:33;99894.16;;;6.78;100.00
75221;BME280;63802;53.232;6.570;2023-12-22T11:30:00;99898.84;;;6.81;100.00
75221;BME280;63802;53.232;6.570;2023-12-22T11:32:27;99897.00;;;6.85;100.00
75221;BME280;63802;53.232;6.570;2023-12-22T11:34:54;99898.50;;;6.82;100.00
75221;BME280;63802;53.232;6.570;2023-12-22T11:37:21;99908.38;;;6.94;100.00
75221;BME280;63802;53.232;6.570;2023-12-22T11:39:47;99869.34;;;6.75;100.00
75221;BME280;63802;53.232;6.570;2023-12-22T11:42:27;99889.28;;;6.87;100.00
75221;BME280;63802;53.232;6.570;2023-12-22T11:44:53;99854.19;;;6.74;100.00
75221;BME280;63802;53.232;6.570;2023-12-22T11:47:22;99880.13;;;6.95;100.00
75221;BME280;63802;53.232;6.570;2023-12-22T11:49:48;99864.53;;;6.88;100.00
75221;BME280;63802;53.232;6.570;2023-12-22T11:52:17;99863.16;;;6.98;100.00
75221;BME280;63802;53.232;6.570;2023-12-22T11:54:51;99856.97;;;7.01;100.00
75221;BME280;63802;53.232;6.570;2023-12-22T11:59:55;99843.31;;;6.94;100.00
75221;BME280;63802;53.232;6.570;2023-12-22T12:02:21;99868.69;;;7.05;100.00
75221;BME280;63802;53.232;6.570;2023-12-22T12:04:50;99860.97;;;7.07;100.00
75221;BME280;63802;53.232;6.570;2023-12-22T12:07:44;99855.53;;;7.07;100.00
75221;BME280;63802;53.232;6.570;2023-12-22T12:13:06;99840.69;;;7.01;100.00
75221;BME280;63802;53.232;6.570;2023-12-22T12:15:33;99850.13;;;7.07;100.00
75221;BME280;63802;53.232;6.570;2023-12-22T12:18:00;99850.13;;;7.07;100.00
75221;BME280;63802;53.232;6.570;2023-12-22T12:20:26;99836.25;;;7.12;100.00
75221;BME280;63802;53.232;6.570;2023-12-22T12:22:52;99842.41;;;7.09;100.00
75221;BME280;63802;53.232;6.570;2023-12-22T12:25:22;99831.97;;;7.11;100.00
75221;BME280;63802;53.232;6.570;2023-12-22T12:27:50;99812.81;;;7.00;100.00
75221;BME280;63802;53.232;6.570;2023-12-22T12:30:28;99810.63;;;6.87;100.00
75221;BME280;63802;53.232;6.570;2023-12-22T12:32:54;99814.34;;;6.98;100.00
75221;BME280;63802;53.232;6.570;2023-12-22T12:35:20;99794.78;;;6.89;100.00
75221;BME280;63802;53.232;6.570;2023-12-22T12:37:47;99808.22;;;7.04;100.00
75221;BME280;63802;53.232;6.570;2023-12-22T12:40:15;99816.75;;;7.03;100.00
75221;BME280;63802;53.232;6.570;2023-12-22T12:42:44;99810.44;;;6.99;100.00
75221;BME280;63802;53.232;6.570;2023-12-22T12:45:10;99806.91;;;6.95;100.00
75221;BME280;63802;53.232;6.570;2023-12-22T12:47:35;99802.06;;;6.81;100.00
75221;BME280;63802;53.232;6.570;2023-12-22T12:50:02;99818.91;;;6.94;100.00
75221;BME280;63802;53.232;6.570;2023-12-22T12:52:28;99802.06;;;6.81;100.00
75221;BME280;63802;53.232;6.570;2023-12-22T12:54:54;99800.06;;;6.78;100.00
75221;BME280;63802;53.232;6.570;2023-12-22T12:57:19;99821.06;;;6.85;100.00
75221;BME280;63802;53.232;6.570;2023-12-22T12:59:47;99814.84;;;6.84;100.00
75221;BME280;63802;53.232;6.570;2023-12-22T13:02:13;99810.94;;;6.82;100.00
75221;BME280;63802;53.232;6.570;2023-12-22T13:04:39;99799.97;;;6.74;100.00